createdAt,value
2018-11-06T00:02:18.836Z,100262.92
2018-11-06T00:04:52.487Z,100259.98
2018-11-06T00:07:21.231Z,100264.03
2018-11-06T00:09:49.714Z,100262.38
2018-11-06T00:12:18.268Z,100258.50
2018-11-06T00:14:46.777Z,100254.36
2018-11-06T00:17:15.345Z,100257.30
2018-11-06T00:19:43.883Z,100250.70
2018-11-06T00:22:12.399Z,100241.95
2018-11-06T00:24:41.027Z,100250.11
2018-11-06T00:27:09.645Z,100247.41
2018-11-06T00:29:38.350Z,100256.98
2018-11-06T00:32:06.903Z,100247.73
2018-11-06T00:34:35.453Z,100249.66
2018-11-06T00:37:05.672Z,100246.52
2018-11-06T00:39:34.149Z,100250.77
2018-11-06T00:42:04.511Z,100248.77
2018-11-06T00:44:33.061Z,100252.11
2018-11-06T00:47:02.720Z,100245.76
2018-11-06T00:49:31.421Z,100245.55
2018-11-06T00:51:59.989Z,100249.03
2018-11-06T00:54:28.618Z,100247.92
2018-11-06T00:56:57.243Z,100255.17
2018-11-06T00:59:26.208Z,100254.91
2018-11-06T01:01:54.757Z,100258.27
2018-11-06T01:04:23.345Z,100260.37
2018-11-06T01:06:51.949Z,100260.44
2018-11-06T01:09:20.535Z,100260.30
2018-11-06T01:11:49.176Z,100262.61
2018-11-06T01:14:17.711Z,100279.30
2018-11-06T01:16:46.262Z,100275.06
2018-11-06T01:19:14.800Z,100280.47
2018-11-06T01:21:43.373Z,100277.13
2018-11-06T01:24:11.928Z,100277.19
2018-11-06T01:26:40.466Z,100267.94
2018-11-06T01:29:09.557Z,100265.83
2018-11-06T01:31:38.238Z,100265.38
2018-11-06T01:34:06.793Z,100260.05
2018-11-06T01:36:35.316Z,100266.10
2018-11-06T01:39:07.628Z,100256.84
2018-11-06T01:41:36.164Z,100255.50
2018-11-06T01:44:05.442Z,100259.09
2018-11-06T01:46:33.987Z,100258.84
2018-11-06T01:49:04.049Z,100259.75
2018-11-06T01:51:32.933Z,100257.88
2018-11-06T01:54:02.959Z,100257.16
2018-11-06T01:56:31.486Z,100254.00
2018-11-06T01:58:59.994Z,100261.63
2018-11-06T02:01:28.559Z,100253.31
2018-11-06T02:03:57.114Z,100253.17
2018-11-06T02:06:25.882Z,100260.48
2018-11-06T02:08:54.408Z,100262.36
2018-11-06T02:11:23.007Z,100262.72
2018-11-06T02:13:51.669Z,100259.27
2018-11-06T02:16:20.205Z,100253.65
2018-11-06T02:18:48.720Z,100242.70
2018-11-06T02:21:17.239Z,100238.64
2018-11-06T02:23:45.993Z,100240.89
2018-11-06T02:26:14.556Z,100231.53
2018-11-06T02:28:49.623Z,100237.39
2018-11-06T02:31:18.110Z,100234.66
2018-11-06T02:33:46.686Z,100236.80
2018-11-06T02:36:15.252Z,100239.09
2018-11-06T02:38:43.853Z,100236.32
2018-11-06T02:41:12.367Z,100238.84
2018-11-06T02:43:40.863Z,100247.74
2018-11-06T02:46:09.418Z,100243.34
2018-11-06T02:48:38.205Z,100246.15
2018-11-06T02:51:06.775Z,100255.30
2018-11-06T02:53:35.323Z,100251.70
2018-11-06T02:56:07.243Z,100242.05
2018-11-06T02:58:36.163Z,100238.13
2018-11-06T03:01:05.627Z,100241.84
2018-11-06T03:03:41.493Z,100232.78
2018-11-06T03:06:11.878Z,100228.75
2018-11-06T03:08:40.719Z,100226.15
2018-11-06T03:11:09.387Z,100222.46
2018-11-06T03:13:38.342Z,100215.97
2018-11-06T03:16:06.913Z,100217.00
2018-11-06T03:18:35.733Z,100222.18
2018-11-06T03:21:05.364Z,100220.52
2018-11-06T03:23:33.884Z,100233.11
2018-11-06T03:26:05.197Z,100232.74
2018-11-06T03:28:33.853Z,100234.10
2018-11-06T03:31:03.839Z,100232.36
2018-11-06T03:33:32.352Z,100239.49
2018-11-06T03:36:00.902Z,100239.41
2018-11-06T03:38:29.457Z,100242.41
2018-11-06T03:40:57.970Z,100251.58
2018-11-06T03:43:26.501Z,100252.66
2018-11-06T03:45:55.013Z,100252.24
2018-11-06T03:48:23.547Z,100260.82
2018-11-06T03:50:52.175Z,100260.73
2018-11-06T03:53:20.684Z,100263.64
2018-11-06T03:55:49.221Z,100262.67
2018-11-06T03:58:18.521Z,100253.41
2018-11-06T04:00:47.057Z,100252.24
2018-11-06T04:03:15.789Z,100242.42
2018-11-06T04:05:44.308Z,100240.25
2018-11-06T04:08:12.926Z,100248.72
2018-11-06T04:10:41.797Z,100245.52
2018-11-06T04:13:10.301Z,100255.62
2018-11-06T04:15:38.901Z,100248.72
2018-11-06T04:18:07.420Z,100252.74
2018-11-06T04:20:36.276Z,100247.80
2018-11-06T04:23:05.603Z,100246.31
2018-11-06T04:25:34.532Z,100252.11
2018-11-06T04:28:04.357Z,100256.03
2018-11-06T04:30:32.882Z,100257.97
2018-11-06T04:33:03.287Z,100263.23
2018-11-06T04:35:32.373Z,100261.38
2018-11-06T04:38:00.908Z,100261.12
2018-11-06T04:40:29.486Z,100267.84
2018-11-06T04:42:57.996Z,100267.33
2018-11-06T04:45:26.566Z,100266.60
2018-11-06T04:47:55.114Z,100269.94
2018-11-06T04:50:23.673Z,100260.63
2018-11-06T04:52:52.261Z,100255.75
2018-11-06T04:55:20.788Z,100255.95
2018-11-06T04:57:49.827Z,100251.98
2018-11-06T05:00:18.350Z,100241.35
2018-11-06T05:02:46.916Z,100249.39
2018-11-06T05:05:15.600Z,100239.86
2018-11-06T05:07:44.505Z,100238.72
2018-11-06T05:10:15.944Z,100239.40
2018-11-06T05:12:44.809Z,100243.64
2018-11-06T05:15:14.573Z,100250.52
2018-11-06T05:17:43.168Z,100251.47
2018-11-06T05:20:14.384Z,100253.44
2018-11-06T05:22:43.391Z,100254.94
2018-11-06T05:25:11.902Z,100248.50
2018-11-06T05:27:40.691Z,100253.87
2018-11-06T05:30:10.807Z,100250.83
2018-11-06T05:32:40.360Z,100253.44
2018-11-06T05:35:09.736Z,100261.30
2018-11-06T05:37:39.499Z,100267.02
2018-11-06T05:40:19.241Z,100266.35
2018-11-06T05:42:47.840Z,100266.87
2018-11-06T05:45:16.347Z,100265.98
2018-11-06T05:47:48.911Z,100268.73
2018-11-06T05:50:17.806Z,100262.86
2018-11-06T05:52:46.337Z,100266.81
2018-11-06T05:55:15.042Z,100264.56
2018-11-06T05:57:43.640Z,100262.00
2018-11-06T06:00:12.274Z,100267.70
2018-11-06T06:02:40.888Z,100281.83
2018-11-06T06:05:09.252Z,100287.16
2018-11-06T06:07:37.796Z,100287.75
2018-11-06T06:10:07.089Z,100294.84
2018-11-06T06:12:36.006Z,100294.05
2018-11-06T06:15:06.840Z,100283.95
2018-11-06T06:17:35.469Z,100287.23
2018-11-06T06:20:06.654Z,100284.19
2018-11-06T06:22:35.342Z,100296.29
2018-11-06T06:25:10.541Z,100289.58
2018-11-06T06:27:39.209Z,100291.02
2018-11-06T06:30:10.289Z,100294.81
2018-11-06T06:32:38.861Z,100295.13
2018-11-06T06:35:07.483Z,100300.80
2018-11-06T06:37:36.053Z,100295.28
2018-11-06T06:40:06.509Z,100296.03
2018-11-06T06:42:35.041Z,100301.03
2018-11-06T06:45:07.334Z,100307.38
2018-11-06T06:47:36.720Z,100302.73
2018-11-06T06:50:08.283Z,100297.87
2018-11-06T06:52:37.268Z,100298.54
2018-11-06T06:55:07.592Z,100297.81
2018-11-06T06:57:36.690Z,100302.95
2018-11-06T07:00:06.735Z,100304.55
2018-11-06T07:02:35.944Z,100301.03
2018-11-06T07:05:07.068Z,100310.99
2018-11-06T07:07:35.853Z,100307.86
2018-11-06T07:10:06.324Z,100306.45
2018-11-06T07:12:35.312Z,100308.98
2018-11-06T07:15:08.014Z,100309.30
2018-11-06T07:17:36.922Z,100311.30
2018-11-06T07:20:07.566Z,100310.41
2018-11-06T07:22:36.298Z,100319.12
2018-11-06T07:25:06.604Z,100323.83
2018-11-06T07:27:38.848Z,100323.00
2018-11-06T07:30:09.781Z,100323.91
2018-11-06T07:32:38.750Z,100337.90
2018-11-06T07:35:08.419Z,100335.27
2018-11-06T07:37:37.233Z,100340.28
2018-11-06T07:40:06.888Z,100349.14
2018-11-06T07:42:35.416Z,100351.17
2018-11-06T07:45:07.153Z,100354.08
2018-11-06T07:47:35.744Z,100351.38
2018-11-06T07:50:06.251Z,100356.59
2018-11-06T07:52:35.217Z,100360.08
2018-11-06T07:55:06.295Z,100361.42
2018-11-06T07:57:34.799Z,100359.87
2018-11-06T08:00:10.051Z,100355.06
2018-11-06T08:02:39.832Z,100354.30
2018-11-06T08:05:08.542Z,100349.97
2018-11-06T08:07:37.144Z,100350.10
2018-11-06T08:10:06.751Z,100352.94
2018-11-06T08:12:35.503Z,100360.05
2018-11-06T08:15:05.724Z,100360.70
2018-11-06T08:17:34.532Z,100366.02
2018-11-06T08:20:05.137Z,100359.67
2018-11-06T08:22:33.751Z,100362.07
2018-11-06T08:25:07.071Z,100362.16
2018-11-06T08:27:35.813Z,100361.21
2018-11-06T08:30:06.167Z,100360.19
2018-11-06T08:32:35.411Z,100356.50
2018-11-06T08:35:05.730Z,100361.61
2018-11-06T08:37:34.270Z,100363.21
2018-11-06T08:40:05.816Z,100370.03
2018-11-06T08:42:34.506Z,100356.69
2018-11-06T08:45:05.432Z,100365.81
2018-11-06T08:47:33.995Z,100363.80
2018-11-06T08:50:03.499Z,100366.39
2018-11-06T08:52:32.050Z,100360.22
2018-11-06T08:55:00.777Z,100361.41
2018-11-06T08:57:29.400Z,100356.41
2018-11-06T08:59:57.934Z,100354.45
2018-11-06T09:02:26.646Z,100354.27
2018-11-06T09:04:55.385Z,100349.85
2018-11-06T09:07:23.941Z,100343.39
2018-11-06T09:09:52.475Z,100344.02
2018-11-06T09:12:21.158Z,100344.51
2018-11-06T09:14:49.698Z,100344.48
2018-11-06T09:17:18.544Z,100346.19
2018-11-06T09:19:47.067Z,100346.31
2018-11-06T09:22:15.635Z,100351.48
2018-11-06T09:24:44.768Z,100350.86
2018-11-06T09:27:13.289Z,100354.22
2018-11-06T09:29:41.878Z,100362.61
2018-11-06T09:32:10.408Z,100359.17
2018-11-06T09:34:38.940Z,100362.31
2018-11-06T09:37:07.869Z,100357.20
2018-11-06T09:39:37.942Z,100364.09
2018-11-06T09:42:06.902Z,100365.25
2018-11-06T09:44:35.501Z,100360.17
2018-11-06T09:47:05.875Z,100361.36
2018-11-06T09:49:34.350Z,100364.97
2018-11-06T09:52:04.708Z,100363.75
2018-11-06T09:54:33.206Z,100365.59
2018-11-06T09:57:02.831Z,100369.17
2018-11-06T09:59:31.429Z,100371.42
2018-11-06T10:02:00.254Z,100359.57
2018-11-06T10:04:28.832Z,100360.45
2018-11-06T10:06:57.620Z,100361.20
2018-11-06T10:09:25.869Z,100345.50
2018-11-06T10:11:54.879Z,100347.48
2018-11-06T10:14:23.377Z,100346.52
2018-11-06T10:16:51.975Z,100342.95
2018-11-06T10:19:20.516Z,100349.33
2018-11-06T10:21:49.053Z,100352.66
2018-11-06T10:24:17.636Z,100358.30
2018-11-06T10:26:46.500Z,100360.89
2018-11-06T10:29:15.074Z,100359.31
2018-11-06T10:31:44.576Z,100361.70
2018-11-06T10:34:13.104Z,100361.19
2018-11-06T10:36:41.652Z,100359.49
2018-11-06T10:39:12.335Z,100355.32
2018-11-06T10:41:41.321Z,100353.98
2018-11-06T10:44:09.962Z,100350.81
2018-11-06T10:46:38.972Z,100345.76
2018-11-06T10:49:08.485Z,100345.08
2018-11-06T10:51:37.101Z,100341.89
2018-11-06T10:54:06.131Z,100339.72
2018-11-06T10:56:34.724Z,100339.30
2018-11-06T10:59:06.547Z,100335.52
2018-11-06T11:01:40.246Z,100334.23
2018-11-06T11:04:14.100Z,100333.95
2018-11-06T11:06:42.616Z,100332.65
2018-11-06T11:09:11.769Z,100329.03
2018-11-06T11:11:40.404Z,100323.12
2018-11-06T11:14:09.032Z,100324.42
2018-11-06T11:16:37.577Z,100321.45
2018-11-06T11:19:06.273Z,100322.01
2018-11-06T11:21:34.816Z,100321.75
2018-11-06T11:24:04.837Z,100324.82
2018-11-06T11:26:33.424Z,100321.37
2018-11-06T11:29:04.539Z,100319.18
2018-11-06T11:31:33.113Z,100308.59
2018-11-06T11:34:02.687Z,100311.04
2018-11-06T11:36:31.245Z,100302.33
2018-11-06T11:38:59.857Z,100299.61
2018-11-06T11:41:28.598Z,100298.77
2018-11-06T11:43:57.145Z,100301.78
2018-11-06T11:46:25.656Z,100304.21
2018-11-06T11:48:54.406Z,100296.84
2018-11-06T11:51:23.060Z,100301.39
2018-11-06T11:53:51.588Z,100297.91
2018-11-06T11:56:20.128Z,100289.11
2018-11-06T11:58:48.688Z,100291.38
2018-11-06T12:01:17.326Z,100285.64
2018-11-06T12:03:46.162Z,100278.99
2018-11-06T12:06:14.682Z,100269.98
2018-11-06T12:08:43.713Z,100265.30
2018-11-06T12:11:12.288Z,100268.03
2018-11-06T12:13:41.009Z,100260.30
2018-11-06T12:16:09.630Z,100265.25
2018-11-06T12:18:38.178Z,100259.19
2018-11-06T12:21:06.828Z,100267.69
2018-11-06T12:23:35.340Z,100261.98
2018-11-06T12:26:04.876Z,100256.96
2018-11-06T12:28:33.440Z,100256.05
2018-11-06T12:31:04.664Z,100254.91
2018-11-06T12:33:33.563Z,100259.28
2018-11-06T12:36:05.282Z,100255.55
2018-11-06T12:38:33.903Z,100248.84
2018-11-06T12:41:03.873Z,100253.80
2018-11-06T12:43:33.618Z,100254.18
2018-11-06T12:46:04.103Z,100265.95
2018-11-06T12:48:32.642Z,100250.63
2018-11-06T12:51:03.253Z,100257.02
2018-11-06T12:53:32.052Z,100258.91
2018-11-06T12:56:00.573Z,100251.02
2018-11-06T12:58:29.117Z,100253.08
2018-11-06T13:00:57.650Z,100247.69
2018-11-06T13:03:26.323Z,100240.84
2018-11-06T13:05:54.946Z,100239.64
2018-11-06T13:08:23.549Z,100236.80
2018-11-06T13:10:52.073Z,100233.68
2018-11-06T13:13:20.643Z,100232.11
2018-11-06T13:15:49.262Z,100228.09
2018-11-06T13:18:17.954Z,100225.08
2018-11-06T13:20:46.478Z,100225.69
2018-11-06T13:23:15.212Z,100230.56
2018-11-06T13:25:43.846Z,100238.23
2018-11-06T13:28:12.401Z,100238.55
2018-11-06T13:30:41.164Z,100233.14
2018-11-06T13:33:09.821Z,100235.69
2018-11-06T13:35:38.543Z,100231.91
2018-11-06T13:38:07.340Z,100236.30
2018-11-06T13:40:36.169Z,100239.48
2018-11-06T13:43:05.724Z,100243.74
2018-11-06T13:45:34.513Z,100232.74
2018-11-06T13:48:05.100Z,100230.48
2018-11-06T13:50:35.398Z,100238.85
2018-11-06T13:53:06.566Z,100235.83
2018-11-06T13:55:35.107Z,100236.95
2018-11-06T13:58:05.706Z,100229.39
2018-11-06T14:00:34.267Z,100234.83
2018-11-06T14:03:04.647Z,100230.27
2018-11-06T14:05:33.270Z,100237.92
2018-11-06T14:08:02.664Z,100230.34
2018-11-06T14:10:31.273Z,100232.95
2018-11-06T14:12:59.833Z,100235.69
2018-11-06T14:15:28.372Z,100241.53
2018-11-06T14:17:56.896Z,100233.41
2018-11-06T14:20:25.416Z,100235.78
2018-11-06T14:22:54.458Z,100231.25
2018-11-06T14:25:22.994Z,100222.59
2018-11-06T14:27:51.542Z,100221.16
2018-11-06T14:30:20.425Z,100226.16
2018-11-06T14:32:49.273Z,100231.53
2018-11-06T14:35:18.894Z,100234.27
2018-11-06T14:37:47.736Z,100228.75
2018-11-06T14:40:16.768Z,100236.27
2018-11-06T14:42:45.749Z,100229.51
2018-11-06T14:45:15.684Z,100228.02
2018-11-06T14:47:44.340Z,100232.16
2018-11-06T14:50:13.235Z,100228.73
2018-11-06T14:52:41.784Z,100230.12
2018-11-06T14:55:12.307Z,100229.66
2018-11-06T14:57:41.067Z,100230.77
2018-11-06T15:00:14.411Z,100230.20
2018-11-06T15:02:44.256Z,100231.05
2018-11-06T15:05:12.815Z,100228.20
2018-11-06T15:07:41.420Z,100227.52
2018-11-06T15:10:10.707Z,100223.86
2018-11-06T15:12:39.288Z,100213.85
2018-11-06T15:15:09.404Z,100210.93
2018-11-06T15:17:38.209Z,100203.86
2018-11-06T15:20:09.308Z,100204.94
2018-11-06T15:22:37.963Z,100198.98
2018-11-06T15:25:07.002Z,100198.45
2018-11-06T15:27:36.150Z,100200.62
2018-11-06T15:30:07.056Z,100208.02
2018-11-06T15:32:35.606Z,100216.73
2018-11-06T15:35:07.477Z,100210.19
2018-11-06T15:37:36.569Z,100212.35
2018-11-06T15:40:05.930Z,100208.53
2018-11-06T15:42:34.569Z,100204.38
2018-11-06T15:45:05.448Z,100212.55
2018-11-06T15:47:34.065Z,100216.87
2018-11-06T15:50:04.615Z,100221.20
2018-11-06T15:52:33.335Z,100218.72
2018-11-06T15:55:05.422Z,100224.39
2018-11-06T15:57:34.168Z,100223.55
2018-11-06T16:00:03.882Z,100226.78
2018-11-06T16:02:32.878Z,100219.16
2018-11-06T16:05:02.995Z,100213.94
2018-11-06T16:07:31.606Z,100215.83
2018-11-06T16:10:00.173Z,100210.90
2018-11-06T16:12:28.740Z,100208.44
2018-11-06T16:14:57.805Z,100205.15
2018-11-06T16:17:26.315Z,100206.44
2018-11-06T16:19:54.944Z,100204.52
2018-11-06T16:22:23.503Z,100207.98
2018-11-06T16:24:52.150Z,100204.07
2018-11-06T16:27:20.742Z,100203.97
2018-11-06T16:29:49.419Z,100206.67
2018-11-06T16:32:24.113Z,100216.69
2018-11-06T16:34:52.677Z,100213.94
2018-11-06T16:37:21.913Z,100213.61
2018-11-06T16:39:50.847Z,100213.29
2018-11-06T16:42:19.496Z,100213.15
2018-11-06T16:44:48.031Z,100212.34
2018-11-06T16:47:16.618Z,100218.00
2018-11-06T16:49:45.243Z,100223.61
2018-11-06T16:52:14.909Z,100225.89
2018-11-06T16:54:43.793Z,100225.52
2018-11-06T16:57:12.412Z,100234.83
2018-11-06T16:59:41.130Z,100228.82
2018-11-06T17:02:09.928Z,100225.52
2018-11-06T17:04:38.438Z,100223.98
2018-11-06T17:07:07.005Z,100226.80
2018-11-06T17:09:35.627Z,100228.16
2018-11-06T17:12:04.462Z,100231.17
2018-11-06T17:14:33.153Z,100230.64
2018-11-06T17:17:04.596Z,100222.44
2018-11-06T17:19:33.176Z,100227.25
2018-11-06T17:22:03.179Z,100228.20
2018-11-06T17:24:31.733Z,100228.42
2018-11-06T17:27:00.346Z,100224.59
2018-11-06T17:29:29.009Z,100218.95
2018-11-06T17:31:57.568Z,100223.53
2018-11-06T17:34:26.680Z,100219.11
2018-11-06T17:36:55.402Z,100219.47
2018-11-06T17:39:28.012Z,100221.09
2018-11-06T17:41:56.533Z,100220.30
2018-11-06T17:44:25.071Z,100218.49
2018-11-06T17:46:53.635Z,100222.68
2018-11-06T17:49:22.174Z,100216.34
2018-11-06T17:51:50.736Z,100217.47
2018-11-06T17:54:20.186Z,100215.31
2018-11-06T17:56:49.648Z,100210.98
2018-11-06T17:59:18.604Z,100208.06
2018-11-06T18:01:47.170Z,100210.45
2018-11-06T18:04:16.188Z,100210.42
2018-11-06T18:06:44.839Z,100215.26
2018-11-06T18:09:14.052Z,100208.16
2018-11-06T18:11:42.688Z,100212.70
2018-11-06T18:14:11.531Z,100204.41
2018-11-06T18:16:40.489Z,100201.67
2018-11-06T18:19:09.185Z,100207.86
2018-11-06T18:21:37.769Z,100200.22
2018-11-06T18:24:09.301Z,100207.70
2018-11-06T18:26:38.042Z,100205.98
2018-11-06T18:29:07.157Z,100206.11
2018-11-06T18:31:35.805Z,100210.17
2018-11-06T18:34:08.329Z,100202.67
2018-11-06T18:36:37.049Z,100206.29
2018-11-06T18:39:09.683Z,100209.45
2018-11-06T18:41:38.420Z,100209.26
2018-11-06T18:44:07.759Z,100217.31
2018-11-06T18:46:36.606Z,100215.58
2018-11-06T18:49:06.128Z,100213.73
2018-11-06T18:51:34.712Z,100210.77
2018-11-06T18:54:08.565Z,100202.23
2018-11-06T18:56:37.210Z,100201.56
2018-11-06T18:59:06.276Z,100201.45
2018-11-06T19:01:34.920Z,100207.79
2018-11-06T19:04:05.951Z,100205.80
2018-11-06T19:06:34.542Z,100212.16
2018-11-06T19:09:07.515Z,100209.09
2018-11-06T19:11:36.187Z,100207.33
2018-11-06T19:14:05.723Z,100213.77
2018-11-06T19:16:34.361Z,100220.09
2018-11-06T19:19:06.316Z,100211.86
2018-11-06T19:21:35.063Z,100206.41
2018-11-06T19:24:05.843Z,100211.42
2018-11-06T19:26:34.858Z,100214.00
2018-11-06T19:29:05.855Z,100218.76
2018-11-06T19:31:34.541Z,100220.45
2018-11-06T19:34:04.860Z,100224.98
2018-11-06T19:36:33.608Z,100219.63
2018-11-06T19:39:06.026Z,100225.16
2018-11-06T19:41:35.609Z,100223.95
2018-11-06T19:44:07.115Z,100233.23
2018-11-06T19:46:36.081Z,100233.02
2018-11-06T19:49:05.438Z,100234.85
2018-11-06T19:51:34.906Z,100232.63
2018-11-06T19:54:05.839Z,100233.08
2018-11-06T19:56:35.074Z,100240.00
2018-11-06T19:59:04.644Z,100244.21
2018-11-06T20:01:33.489Z,100240.83
2018-11-06T20:04:04.445Z,100246.93
2018-11-06T20:06:33.650Z,100252.87
2018-11-06T20:09:05.384Z,100254.22
2018-11-06T20:11:34.666Z,100254.02
2018-11-06T20:14:05.156Z,100270.69
2018-11-06T20:16:34.171Z,100263.30
2018-11-06T20:19:04.978Z,100269.80
2018-11-06T20:21:33.721Z,100268.55
2018-11-06T20:24:04.215Z,100271.00
2018-11-06T20:26:33.445Z,100270.64
2018-11-06T20:29:04.826Z,100270.42
2018-11-06T20:31:34.018Z,100269.53
2018-11-06T20:34:06.388Z,100260.92
2018-11-06T20:36:35.032Z,100272.30
2018-11-06T20:39:08.386Z,100270.11
2018-11-06T20:41:38.200Z,100266.53
2018-11-06T20:44:07.058Z,100270.92
2018-11-06T20:46:36.154Z,100264.78
2018-11-06T20:49:05.542Z,100261.45
2018-11-06T20:51:34.310Z,100255.72
2018-11-06T20:54:05.293Z,100256.08
2018-11-06T20:56:34.639Z,100253.87
2018-11-06T20:59:05.039Z,100260.50
2018-11-06T21:01:34.000Z,100252.70
2018-11-06T21:04:05.845Z,100260.50
2018-11-06T21:06:34.451Z,100259.97
2018-11-06T21:09:08.601Z,100257.81
2018-11-06T21:11:37.499Z,100262.16
2018-11-06T21:14:06.737Z,100260.92
2018-11-06T21:16:35.557Z,100269.22
2018-11-06T21:19:05.482Z,100262.47
2018-11-06T21:21:34.397Z,100255.97
2018-11-06T21:24:05.851Z,100262.92
2018-11-06T21:26:34.735Z,100266.52
2018-11-06T21:29:07.301Z,100262.34
2018-11-06T21:31:35.980Z,100257.72
2018-11-06T21:34:05.281Z,100263.11
2018-11-06T21:36:34.854Z,100258.17
2018-11-06T21:39:06.636Z,100253.74
2018-11-06T21:41:35.227Z,100253.44
2018-11-06T21:44:05.960Z,100256.83
2018-11-06T21:46:34.610Z,100249.78
2018-11-06T21:49:04.918Z,100249.26
2018-11-06T21:51:33.622Z,100246.43
2018-11-06T21:54:04.868Z,100246.33
2018-11-06T21:56:33.462Z,100249.03
2018-11-06T21:59:03.900Z,100251.52
2018-11-06T22:01:32.801Z,100242.22
2018-11-06T22:04:03.218Z,100243.49
2018-11-06T22:06:31.823Z,100242.03
2018-11-06T22:09:07.300Z,100244.36
2018-11-06T22:11:35.896Z,100236.72
2018-11-06T22:14:06.215Z,100245.19
2018-11-06T22:16:34.757Z,100246.87
2018-11-06T22:19:04.615Z,100246.09
2018-11-06T22:21:34.581Z,100243.03
2018-11-06T22:24:04.868Z,100238.25
2018-11-06T22:26:33.433Z,100242.73
2018-11-06T22:29:02.853Z,100233.91
2018-11-06T22:31:31.541Z,100231.28
2018-11-06T22:33:59.965Z,100236.67
2018-11-06T22:36:28.647Z,100229.11
2018-11-06T22:38:57.167Z,100242.27
2018-11-06T22:41:25.842Z,100252.84
2018-11-06T22:43:54.476Z,100250.37
2018-11-06T22:46:23.329Z,100243.20
2018-11-06T22:48:51.872Z,100244.84
2018-11-06T22:51:21.386Z,100236.45
2018-11-06T22:53:49.943Z,100240.95
2018-11-06T22:56:18.459Z,100247.30
2018-11-06T22:58:47.169Z,100245.15
2018-11-06T23:01:24.749Z,100243.56
2018-11-06T23:03:53.990Z,100244.39
2018-11-06T23:06:22.716Z,100244.64
2018-11-06T23:08:51.425Z,100246.12
2018-11-06T23:11:19.937Z,100248.51
2018-11-06T23:13:56.073Z,100248.89
2018-11-06T23:16:24.619Z,100249.80
2018-11-06T23:18:53.116Z,100247.69
2018-11-06T23:21:21.689Z,100252.34
2018-11-06T23:23:50.225Z,100250.99
2018-11-06T23:26:18.884Z,100247.78
2018-11-06T23:28:47.386Z,100251.34
2018-11-06T23:31:16.351Z,100257.34
2018-11-06T23:33:45.317Z,100254.27
2018-11-06T23:36:13.865Z,100253.95
2018-11-06T23:38:42.817Z,100248.62
2018-11-06T23:41:11.538Z,100244.37
2018-11-06T23:43:40.119Z,100251.83
2018-11-06T23:46:09.182Z,100245.91
2018-11-06T23:48:37.744Z,100241.80
2018-11-06T23:51:06.306Z,100245.06
2018-11-06T23:53:34.926Z,100237.87
2018-11-06T23:56:05.301Z,100238.94
2018-11-06T23:58:34.068Z,100232.66
